Time;durP1;ratioP1;P1;durP2;ratioP2;P2;SDS_P1;SDS_P2;PMS_P1;PMS_P2;Temp;Humidity;BMP_temperature;BMP_pressure;BME280_temperature;BME280_humidity;BME280_pressure;Samples;Min_cycle;Max_cycle;Signal;HPM_P1;HPM_P2
2023/09/25 00:01:39;;;;;;;25.58;13.70;;;;;;;16.89;83.86;100274.19;4795106;29;20149;-92
2023/09/25 00:04:39;;;;;;;24.48;14.23;;;;;;;17.12;84.56;100313.41;4812415;29;20040;-94
2023/09/25 00:07:30;;;;;;;29.88;14.38;;;;;;;17.54;84.76;100388.13;4806620;29;20080;-92
2023/09/25 00:09:57;;;;;;;25.63;13.98;;;;;;;17.29;85.08;100340.94;4824219;29;20058;-92
2023/09/25 00:17:31;;;;;;;20.45;13.88;;;;;;;17.57;85.92;100388.25;4833385;29;20042;-92
2023/09/25 00:19:57;;;;;;;21.30;12.98;;;;;;;17.24;86.01;100338.34;4797988;29;20051;-92
2023/09/25 00:49:23;;;;;;;18.77;12.40;;;;;;;17.86;86.96;100413.50;4824470;29;20088;-93
2023/09/25 00:51:50;;;;;;;21.20;13.15;;;;;;;17.88;87.36;100420.34;4824773;29;20469;-92
2023/09/25 00:54:18;;;;;;;28.03;13.67;;;;;;;17.64;87.30;100382.19;4823705;29;20051;-92
2023/09/25 01:14:05;;;;;;;19.63;10.23;;;;;;;17.38;87.06;100355.53;4896552;29;20104;-91
2023/09/25 01:20:51;;;;;;;11.48;8.13;;;;;;;17.76;87.55;100440.41;4895941;29;20086;-92
2023/09/25 01:23:19;;;;;;;9.07;5.78;;;;;;;17.25;86.27;100373.16;4847882;29;20044;-93
2023/09/25 01:50:43;;;;;;;5.47;3.03;;;;;;;16.72;82.65;100392.91;4880532;29;20110;-93
2023/09/25 01:53:09;;;;;;;6.82;3.42;;;;;;;16.97;82.93;100444.56;4836838;29;20049;-91
2023/09/25 01:55:36;;;;;;;4.65;3.42;;;;;;;16.91;83.34;100446.69;4986320;23;20499;-92
2023/09/25 02:20:20;;;;;;;4.20;3.30;;;;;;;17.15;78.86;100492.31;4877739;29;20079;-90
2023/09/25 02:23:22;;;;;;;6.20;3.33;;;;;;;17.20;79.00;100508.72;4826268;29;20057;-93
2023/09/25 02:34:25;;;;;;;5.70;3.22;;;;;;;16.96;77.25;100478.88;4834411;29;20099;-91
2023/09/25 02:41:03;;;;;;;7.75;3.45;;;;;;;17.20;75.69;100535.56;4846431;29;20071;-91
2023/09/25 02:47:49;;;;;;;5.43;3.33;;;;;;;16.52;74.29;100444.09;4846730;29;20112;-92
2023/09/25 03:11:27;;;;;;;5.85;3.13;;;;;;;16.57;72.36;100477.06;4909263;29;20092;-92
2023/09/25 03:14:47;;;;;;;7.40;3.42;;;;;;;17.00;72.56;100548.09;4881127;29;20036;-90
2023/09/25 03:18:07;;;;;;;7.45;3.20;;;;;;;17.17;72.52;100570.16;4892265;29;20040;-92
2023/09/25 03:21:24;;;;;;;6.65;3.90;;;;;;;17.09;73.21;100573.78;4878157;29;20036;-93
2023/09/25 03:36:12;;;;;;;6.18;3.58;;;;;;;16.94;74.59;100596.34;4875252;29;20049;-94
2023/09/25 04:35:23;;;;;;;8.68;5.25;;;;;;;16.26;71.17;100560.81;4937706;23;20116;-91
2023/09/25 04:38:46;;;;;;;7.25;5.10;;;;;;;17.10;71.15;100683.94;4863645;29;20051;-82
2023/09/25 04:41:12;;;;;;;7.88;4.50;;;;;;;16.97;70.30;100643.47;4881378;29;20045;-87
2023/09/25 04:43:38;;;;;;;10.47;4.90;;;;;;;17.27;70.08;100661.03;4882983;29;20124;-89
2023/09/25 04:46:04;;;;;;;6.70;4.70;;;;;;;17.46;68.76;100680.06;4888595;29;20071;-86
2023/09/25 04:48:29;;;;;;;9.50;5.10;;;;;;;17.28;68.21;100693.06;4872454;29;20044;-90
2023/09/25 04:50:57;;;;;;;9.52;4.32;;;;;;;17.51;69.75;100684.59;4879314;29;20093;-90
2023/09/25 04:53:23;;;;;;;6.15;4.82;;;;;;;17.63;67.98;100689.50;4864849;29;20069;-89
2023/09/25 04:55:49;;;;;;;10.07;4.50;;;;;;;17.57;67.58;100691.59;4877609;29;20128;-89
2023/09/25 04:58:16;;;;;;;10.77;4.57;;;;;;;17.77;68.23;100695.69;4858238;29;20135;-85
2023/09/25 05:00:44;;;;;;;11.57;5.38;;;;;;;17.80;67.96;100690.31;4846523;29;20131;-86
2023/09/25 05:03:10;;;;;;;8.07;5.28;;;;;;;17.62;66.92;100685.91;4880422;29;20037;-84
2023/09/25 05:05:36;;;;;;;12.37;5.30;;;;;;;17.75;67.95;100703.47;4877855;29;20109;-90
2023/09/25 05:08:04;;;;;;;7.25;4.75;;;;;;;17.79;67.36;100693.41;4843920;29;20056;-84
2023/09/25 05:10:30;;;;;;;7.85;5.07;;;;;;;17.90;66.54;100704.94;4878474;29;20051;-86
2023/09/25 05:12:57;;;;;;;13.50;4.53;;;;;;;17.87;66.19;100711.94;4878218;29;20097;-89
2023/09/25 05:15:25;;;;;;;8.70;5.38;;;;;;;17.81;65.50;100711.31;4863530;29;20116;-85
2023/09/25 05:17:51;;;;;;;11.43;5.18;;;;;;;17.48;66.52;100682.50;4875178;29;20072;-87
2023/09/25 05:20:22;;;;;;;11.43;4.93;;;;;;;17.38;66.85;100662.34;4877640;29;20521;-87
2023/09/25 05:22:57;;;;;;;7.70;5.25;;;;;;;17.59;66.69;100687.38;4875860;29;20037;-88
2023/09/25 05:25:28;;;;;;;7.68;5.18;;;;;;;17.65;66.33;100674.22;4857317;29;20070;-84
2023/09/25 05:27:58;;;;;;;9.73;5.93;;;;;;;18.05;65.49;100726.56;4878518;29;20044;-87
2023/09/25 05:30:24;;;;;;;9.60;5.47;;;;;;;18.09;66.61;100727.53;4858387;29;20554;-86
2023/09/25 05:32:52;;;;;;;7.55;4.93;;;;;;;18.19;65.35;100731.91;4878181;29;20101;-89
2023/09/25 05:35:19;;;;;;;8.75;5.85;;;;;;;17.84;64.45;100690.47;4861849;29;20057;-89
2023/09/25 05:37:47;;;;;;;12.50;6.15;;;;;;;18.05;65.27;100710.78;4855232;29;20041;-86
2023/09/25 05:40:14;;;;;;;12.10;5.53;;;;;;;18.01;64.23;100717.28;4874112;29;20041;-84
2023/09/25 05:42:49;;;;;;;12.75;5.20;;;;;;;17.92;64.85;100727.56;4875166;29;20092;-87
2023/09/25 05:45:17;;;;;;;8.18;5.80;;;;;;;17.72;64.67;100740.91;4868522;29;20527;-87
2023/09/25 05:47:44;;;;;;;11.90;5.57;;;;;;;17.69;64.77;100729.69;4846005;29;20137;-86
2023/09/25 05:50:11;;;;;;;16.85;5.70;;;;;;;17.51;64.66;100698.44;4868920;29;20959;-86
2023/09/25 05:52:39;;;;;;;13.93;5.70;;;;;;;17.61;64.94;100742.34;4877175;29;20058;-86
2023/09/25 05:58:32;;;;;;;9.32;5.40;;;;;;;16.89;64.10;100661.66;4873657;29;20041;-87
2023/09/25 06:00:59;;;;;;;23.25;6.20;;;;;;;16.89;64.54;100691.25;4875060;29;20116;-85
2023/09/25 06:03:26;;;;;;;8.50;5.00;;;;;;;16.94;65.16;100723.41;4869738;29;20043;-86
2023/09/25 06:05:52;;;;;;;21.58;6.57;;;;;;;17.02;65.72;100741.94;4870607;29;20061;-84
2023/09/25 06:08:28;;;;;;;18.13;6.10;;;;;;;16.51;65.43;100668.84;4872878;29;20045;-83
2023/09/25 06:11:02;;;;;;;20.25;6.82;;;;;;;17.16;66.12;100747.38;4887725;29;20041;-85
2023/09/25 06:13:30;;;;;;;13.07;6.50;;;;;;;16.93;65.91;100697.75;4871650;29;20096;-83
2023/09/25 06:15:57;;;;;;;12.20;6.55;;;;;;;17.09;65.44;100707.19;4871569;29;20233;-86
2023/09/25 06:18:23;;;;;;;13.02;5.97;;;;;;;17.24;67.04;100697.63;4873945;29;20059;-86
2023/09/25 06:20:49;;;;;;;8.65;5.35;;;;;;;17.48;64.96;100705.44;4857353;29;21003;-85
2023/09/25 06:23:15;;;;;;;10.18;6.00;;;;;;;17.49;64.46;100715.38;4872659;29;20062;-85
2023/09/25 06:25:44;;;;;;;19.03;7.03;;;;;;;17.77;63.69;100729.69;4875478;29;20044;-84
2023/09/25 06:28:14;;;;;;;16.92;6.70;;;;;;;17.86;63.29;100737.97;4883946;29;20052;-84
2023/09/25 06:30:41;;;;;;;17.90;6.25;;;;;;;17.92;63.70;100731.16;4869691;29;20041;-84
2023/09/25 06:35:45;;;;;;;14.20;6.38;;;;;;;17.72;63.11;100721.53;4869917;29;20810;-84
2023/09/25 06:38:11;;;;;;;13.73;6.13;;;;;;;17.83;62.53;100724.81;4852474;29;20049;-85
2023/09/25 06:40:43;;;;;;;9.17;6.57;;;;;;;18.11;63.03;100760.41;4882473;29;20025;-85
2023/09/25 06:43:10;;;;;;;19.25;6.13;;;;;;;18.26;61.67;100766.25;4876232;29;20036;-85
2023/09/25 06:45:37;;;;;;;12.32;5.95;;;;;;;18.34;60.71;100769.31;4875265;29;20041;-83
2023/09/25 06:48:03;;;;;;;16.38;5.88;;;;;;;18.36;61.87;100747.66;4871045;29;20044;-84
2023/09/25 06:50:30;;;;;;;20.83;5.70;;;;;;;18.22;61.52;100722.94;4872180;29;20799;-85
2023/09/25 06:52:57;;;;;;;20.40;6.40;;;;;;;18.39;61.41;100758.88;4873403;29;20037;-85
2023/09/25 06:55:23;;;;;;;;;;;;;;;18.63;61.88;100779.66;4876639;29;20172;-85
2023/09/25 06:57:49;;;;;;;11.90;5.90;;;;;;;18.66;62.53;100751.28;4874499;29;19976;-86
2023/09/25 07:00:18;;;;;;;8.70;5.60;;;;;;;18.67;61.05;100727.97;4858659;29;20057;-85
2023/09/25 07:02:44;;;;;;;9.63;5.57;;;;;;;18.90;61.43;100778.44;4854525;29;20156;-86
2023/09/25 07:05:13;;;;;;;10.48;5.78;;;;;;;18.86;60.54;100774.69;4874012;29;20116;-83
2023/09/25 07:07:41;;;;;;;10.85;4.88;;;;;;;19.09;61.29;100783.56;4871664;29;20049;-83
2023/09/25 07:10:09;;;;;;;14.15;6.00;;;;;;;18.97;60.46;100751.84;4872073;29;20096;-84
2023/09/25 07:12:36;;;;;;;20.45;6.47;;;;;;;18.83;58.91;100773.41;4873981;29;20037;-83
2023/09/25 07:15:03;;;;;;;12.38;6.10;;;;;;;18.80;59.70;100799.00;4875320;29;20072;-84
2023/09/25 07:17:34;;;;;;;13.60;6.60;;;;;;;18.49;60.65;100766.03;4873725;29;20065;-83
2023/09/25 07:20:00;;;;;;;18.23;6.43;;;;;;;18.75;60.82;100794.47;4874351;29;20044;-84
2023/09/25 07:22:31;;;;;;;18.42;6.78;;;;;;;18.34;60.00;100736.09;4859013;29;20033;-85
2023/09/25 07:24:59;;;;;;;13.32;6.88;;;;;;;18.46;60.16;100761.13;4878584;29;20068;-85
2023/09/25 07:27:27;;;;;;;12.27;6.70;;;;;;;18.54;59.66;100791.59;4876160;29;20045;-85
2023/09/25 07:29:54;;;;;;;10.02;5.85;;;;;;;18.38;59.75;100762.81;4874725;29;20105;-85
2023/09/25 07:32:20;;;;;;;24.52;7.60;;;;;;;18.84;60.26;100805.53;4879357;29;20099;-83
2023/09/25 07:34:46;;;;;;;25.10;7.70;;;;;;;18.80;59.35;100789.88;4888017;29;20082;-85
2023/09/25 07:37:12;;;;;;;15.65;7.68;;;;;;;18.78;58.98;100787.47;4874200;29;20104;-83
2023/09/25 07:39:40;;;;;;;15.68;8.02;;;;;;;18.84;58.91;100816.59;4872666;29;20044;-85
2023/09/25 07:42:07;;;;;;;13.55;7.22;;;;;;;18.67;58.87;100824.94;4873353;29;20056;-85
2023/09/25 07:44:36;;;;;;;;;;;;;;;18.59;59.03;100839.63;4870862;29;20040;-83
2023/09/25 07:47:07;;;;;;;14.43;6.60;;;;;;;18.36;60.07;100825.19;4870157;29;19923;-83
2023/09/25 07:49:40;;;;;;;29.70;7.78;;;;;;;18.33;60.17;100798.97;4871001;29;20049;-83
2023/09/25 07:52:16;;;;;;;16.02;6.97;;;;;;;18.72;59.56;100828.38;4869052;29;20033;-83
2023/09/25 07:54:44;;;;;;;13.07;6.87;;;;;;;18.88;58.62;100842.50;4872763;29;20045;-85
2023/09/25 07:57:15;;;;;;;21.77;6.93;;;;;;;18.77;58.64;100841.22;4872964;29;20080;-84
2023/09/25 07:59:42;;;;;;;17.95;6.97;;;;;;;18.68;58.93;100832.13;4875192;29;20135;-84
2023/09/25 08:02:08;;;;;;;;;;;;;;;18.54;60.09;100838.66;4840151;29;20041;-84
2023/09/25 08:04:35;;;;;;;18.38;6.80;;;;;;;18.36;59.89;100855.63;4875476;29;20416;-81
2023/09/25 08:07:02;;;;;;;10.43;6.22;;;;;;;18.38;59.25;100854.19;4871627;29;20044;-82
2023/09/25 08:09:29;;;;;;;13.13;6.10;;;;;;;18.08;60.14;100844.91;4870341;29;20751;-83
2023/09/25 08:11:57;;;;;;;19.73;6.20;;;;;;;18.05;59.28;100842.81;4874289;29;20529;-83
2023/09/25 08:14:24;;;;;;;12.35;5.53;;;;;;;18.03;58.93;100825.69;4875942;29;20049;-83
2023/09/25 08:16:50;;;;;;;8.50;5.30;;;;;;;18.05;58.91;100837.25;4878912;29;20055;-84
2023/09/25 08:19:18;;;;;;;15.17;6.07;;;;;;;17.77;58.75;100809.91;4880780;29;20039;-84
2023/09/25 08:21:44;;;;;;;12.73;5.30;;;;;;;18.26;58.80;100863.13;4876826;29;20200;-83
2023/09/25 08:24:11;;;;;;;12.75;5.63;;;;;;;18.32;58.23;100869.31;4868357;29;20041;-84
2023/09/25 08:26:39;;;;;;;13.98;6.10;;;;;;;18.34;58.05;100858.72;4880637;29;20499;-83
2023/09/25 08:29:07;;;;;;;14.25;5.88;;;;;;;18.54;57.53;100871.06;4871659;29;20073;-82
2023/09/25 08:31:34;;;;;;;11.32;5.30;;;;;;;18.75;58.12;100838.78;4870188;29;20511;-84
2023/09/25 08:34:00;;;;;;;8.98;5.13;;;;;;;19.05;55.96;100871.31;4889717;29;20115;-84
2023/09/25 08:36:26;;;;;;;8.63;5.17;;;;;;;18.85;55.20;100865.34;4877509;29;20040;-83
2023/09/25 08:38:53;;;;;;;12.60;5.78;;;;;;;18.88;56.45;100874.94;4877408;29;20056;-83
2023/09/25 08:41:23;;;;;;;11.32;5.45;;;;;;;18.64;56.67;100872.69;4876164;29;20041;-84
2023/09/25 08:43:49;;;;;;;11.57;5.13;;;;;;;18.70;57.60;100852.78;4876696;29;20095;-84
2023/09/25 08:46:16;;;;;;;12.93;5.72;;;;;;;18.71;57.44;100842.53;4881241;29;20044;-84
2023/09/25 08:48:46;;;;;;;8.25;5.45;;;;;;;18.86;56.95;100863.38;4873781;29;20435;-83
2023/09/25 08:51:14;;;;;;;10.38;5.35;;;;;;;18.85;57.01;100865.34;4880939;29;20069;-84
2023/09/25 08:53:41;;;;;;;15.07;6.25;;;;;;;18.70;56.11;100863.06;4879833;29;20586;-86
2023/09/25 08:56:12;;;;;;;10.70;5.25;;;;;;;18.48;56.62;100855.78;4880692;29;20483;-85
2023/09/25 08:58:43;;;;;;;16.25;5.75;;;;;;;18.89;57.78;100891.22;4865173;29;20041;-82
2023/09/25 09:01:09;;;;;;;7.60;5.30;;;;;;;18.91;56.02;100874.28;4882279;29;20516;-83
2023/09/25 09:03:45;;;;;;;12.75;5.95;;;;;;;19.07;56.87;100899.47;4883675;29;20053;-82
2023/09/25 09:06:12;;;;;;;16.77;5.63;;;;;;;18.98;56.27;100905.88;4884519;29;20041;-85
2023/09/25 09:08:38;;;;;;;;;;;;;;;19.08;57.03;100913.03;4882252;29;20361;-85
2023/09/25 09:11:11;;;;;;;8.87;4.97;;;;;;;19.01;56.46;100908.00;4863189;29;19923;-85
2023/09/25 09:13:44;;;;;;;8.95;4.78;;;;;;;19.27;57.48;100898.78;4870172;29;20593;-85
2023/09/25 09:16:18;;;;;;;12.82;4.97;;;;;;;19.34;55.08;100918.47;4874577;29;20033;-83
2023/09/25 09:18:45;;;;;;;14.40;4.80;;;;;;;19.19;53.84;100903.19;4876220;29;20057;-83
2023/09/25 09:21:26;;;;;;;7.75;4.82;;;;;;;18.84;54.12;100865.66;4875581;29;20051;-82
2023/09/25 09:23:55;;;;;;;13.68;4.95;;;;;;;18.86;55.51;100894.66;4861912;29;20074;-84
2023/09/25 09:26:23;;;;;;;13.40;5.13;;;;;;;18.87;55.78;100923.19;4879370;29;20037;-85
2023/09/25 09:28:50;;;;;;;12.30;5.47;;;;;;;18.76;55.82;100906.91;4882396;29;20068;-83
2023/09/25 09:31:19;;;;;;;12.75;4.75;;;;;;;18.79;55.79;100927.59;4883108;29;20061;-83
2023/09/25 09:33:48;;;;;;;6.07;4.22;;;;;;;18.68;55.63;100921.56;4887548;29;20061;-82
2023/09/25 09:36:15;;;;;;;8.80;3.80;;;;;;;18.59;55.25;100925.50;4852941;29;20049;-84
2023/09/25 09:38:46;;;;;;;9.02;4.40;;;;;;;18.56;55.27;100935.25;4866517;29;20052;-85
2023/09/25 09:41:17;;;;;;;7.22;3.97;;;;;;;18.33;55.52;100906.94;4859751;29;20064;-84
2023/09/25 09:43:47;;;;;;;9.63;4.63;;;;;;;18.51;55.87;100933.50;4868046;29;20033;-84
2023/09/25 09:46:16;;;;;;;6.10;4.00;;;;;;;18.44;55.56;100922.09;4883776;29;20427;-84
2023/09/25 09:48:46;;;;;;;8.95;4.75;;;;;;;18.44;56.81;100940.63;4882217;29;20045;-85
2023/09/25 09:51:13;;;;;;;14.35;5.47;;;;;;;18.52;55.95;100948.97;4879032;29;20092;-84
2023/09/25 09:53:39;;;;;;;10.43;4.95;;;;;;;18.32;56.09;100894.25;4880316;29;20060;-84
2023/09/25 09:56:06;;;;;;;14.20;4.68;;;;;;;18.74;55.47;100947.16;4874817;29;20139;-83
2023/09/25 09:58:33;;;;;;;9.27;4.15;;;;;;;18.75;55.60;100938.53;4859606;29;20129;-82
2023/09/25 10:01:00;;;;;;;10.57;4.57;;;;;;;18.66;56.76;100934.13;4861057;29;20072;-84
2023/09/25 10:03:28;;;;;;;7.40;4.20;;;;;;;18.40;55.68;100915.56;4860398;29;20085;-84
2023/09/25 10:05:56;;;;;;;6.72;4.00;;;;;;;18.51;56.84;100949.28;4867487;29;20132;-83
2023/09/25 10:08:23;;;;;;;9.23;4.20;;;;;;;18.61;57.59;100946.19;4862087;29;20068;-84
2023/09/25 10:10:51;;;;;;;10.63;4.18;;;;;;;18.72;56.86;100935.59;4846604;29;20463;-85
2023/09/25 10:13:21;;;;;;;14.25;4.20;;;;;;;18.81;56.10;100953.03;4860891;29;20223;-83
2023/09/25 10:15:57;;;;;;;5.45;4.20;;;;;;;18.54;55.99;100920.91;4860182;29;20084;-86
2023/09/25 10:18:31;;;;;;;8.30;5.13;;;;;;;18.59;56.42;100906.09;4830563;29;20557;-86
2023/09/25 10:21:08;;;;;;;11.43;5.38;;;;;;;18.85;56.38;100947.66;4861987;29;20113;-84
2023/09/25 10:23:35;;;;;;;8.15;4.50;;;;;;;18.89;57.14;100954.16;4862177;29;20046;-85
2023/09/25 10:26:03;;;;;;;9.45;4.53;;;;;;;18.90;56.98;100928.88;4862723;29;20074;-84
2023/09/25 10:28:32;;;;;;;8.20;4.93;;;;;;;19.13;55.63;100959.16;4864177;29;20776;-85
2023/09/25 10:31:03;;;;;;;10.73;4.85;;;;;;;18.88;56.43;100958.91;4874897;29;20054;-84
2023/09/25 10:33:37;;;;;;;9.55;4.78;;;;;;;18.51;56.19;100922.41;4862982;29;20057;-84
2023/09/25 10:36:04;;;;;;;13.23;5.55;;;;;;;18.93;57.16;100968.97;4861288;29;20052;-85
2023/09/25 10:38:34;;;;;;;14.65;5.22;;;;;;;18.97;57.28;100954.16;4842078;29;20041;-87
2023/09/25 10:41:06;;;;;;;11.80;5.35;;;;;;;18.87;56.06;100967.53;4846935;29;20052;-87
2023/09/25 10:43:40;;;;;;;8.73;6.82;;;;;;;18.36;56.33;100903.50;4848181;29;20428;-85
2023/09/25 10:46:10;;;;;;;10.90;5.70;;;;;;;18.56;56.54;100940.81;4841778;29;20139;-86
2023/09/25 10:48:39;;;;;;;12.48;5.28;;;;;;;18.30;56.63;100907.59;4849199;29;20121;-84
2023/09/25 10:51:06;;;;;;;10.27;5.30;;;;;;;18.55;56.85;100922.56;4851464;29;20538;-85
2023/09/25 10:53:33;;;;;;;8.18;5.10;;;;;;;18.67;55.51;100916.34;4848342;29;20411;-85
2023/09/25 10:55:59;;;;;;;16.20;5.97;;;;;;;19.18;57.19;100932.06;4851817;29;20109;-86
2023/09/25 10:58:26;;;;;;;11.13;5.00;;;;;;;19.08;54.36;100932.44;4860815;29;20041;-85
2023/09/25 11:00:52;;;;;;;15.43;6.15;;;;;;;19.24;54.36;100938.25;4833349;29;20460;-86
2023/09/25 11:03:18;;;;;;;10.65;5.60;;;;;;;19.09;54.57;100916.59;4858851;29;20044;-86
2023/09/25 11:05:46;;;;;;;7.72;5.20;;;;;;;19.36;55.54;100912.59;4864772;29;20049;-86
2023/09/25 11:08:14;;;;;;;13.40;5.30;;;;;;;19.71;54.98;100947.38;4861820;29;20741;-86
2023/09/25 11:10:43;;;;;;;10.70;5.18;;;;;;;19.45;53.35;100905.84;4861753;29;20045;-85
2023/09/25 11:13:09;;;;;;;6.60;4.38;;;;;;;19.48;54.29;100916.28;4860427;29;20086;-84
2023/09/25 11:15:39;;;;;;;13.38;5.45;;;;;;;19.46;53.48;100934.41;4845363;29;20409;-86
2023/09/25 11:18:10;;;;;;;10.50;5.32;;;;;;;19.45;55.72;100922.50;4866429;29;20041;-85
2023/09/25 11:20:37;;;;;;;11.85;5.40;;;;;;;19.53;55.86;100956.88;4845279;29;20042;-85
2023/09/25 11:23:09;;;;;;;9.27;6.18;;;;;;;19.22;55.55;100943.31;4832747;29;20136;-84
2023/09/25 11:25:46;;;;;;;10.32;5.80;;;;;;;19.19;56.53;100958.63;4862766;29;20050;-89
2023/09/25 11:28:22;;;;;;;13.27;6.00;;;;;;;19.06;56.52;100964.41;4847824;29;20050;-88
2023/09/25 11:30:50;;;;;;;9.35;5.35;;;;;;;18.72;56.22;100930.88;4817103;29;20540;-88
2023/09/25 11:33:20;;;;;;;14.05;5.45;;;;;;;18.67;56.03;100955.13;4871295;29;20037;-86
2023/09/25 11:35:49;;;;;;;10.38;4.53;;;;;;;18.43;54.59;100920.44;4866624;29;20128;-85
2023/09/25 11:38:27;;;;;;;9.27;5.13;;;;;;;18.48;55.21;100936.91;4863294;29;20037;-89
2023/09/25 11:40:54;;;;;;;12.88;4.93;;;;;;;18.75;55.32;100948.81;4863143;29;20057;-85
2023/09/25 11:43:25;;;;;;;8.93;4.72;;;;;;;18.74;54.85;100966.56;4831977;29;20037;-88
2023/09/25 11:45:51;;;;;;;7.97;4.88;;;;;;;18.67;54.54;100946.81;4846827;29;20550;-89
2023/09/25 11:48:18;;;;;;;16.65;4.45;;;;;;;18.83;53.63;100963.78;4850838;29;20046;-89
2023/09/25 11:50:46;;;;;;;8.55;3.58;;;;;;;18.93;52.71;100958.69;4849186;29;20056;-89
2023/09/25 11:53:12;;;;;;;8.18;3.72;;;;;;;19.10;52.06;100971.72;4835288;29;20037;-87
2023/09/25 11:55:40;;;;;;;10.68;3.95;;;;;;;18.91;51.79;100977.63;4864939;29;20056;-89
2023/09/25 11:58:11;;;;;;;8.88;4.03;;;;;;;18.62;51.92;100952.53;4848219;29;20053;-85
2023/09/25 12:00:39;;;;;;;12.00;3.85;;;;;;;18.52;52.47;100962.81;4865237;29;20535;-87
2023/09/25 12:03:08;;;;;;;13.07;4.00;;;;;;;18.68;52.63;100985.28;4862099;29;20052;-87
2023/09/25 12:05:37;;;;;;;14.05;4.32;;;;;;;18.86;52.34;100982.53;4821159;29;20161;-89
2023/09/25 12:08:10;;;;;;;6.85;4.10;;;;;;;18.74;52.99;100966.56;4866023;29;20045;-86
2023/09/25 12:10:39;;;;;;;11.38;4.35;;;;;;;18.92;52.77;100987.56;4848970;29;20053;-86
2023/09/25 12:13:06;;;;;;;15.27;4.93;;;;;;;19.16;53.78;100984.25;4833172;29;20090;-88
2023/09/25 12:15:32;;;;;;;12.10;4.88;;;;;;;19.39;53.14;100995.94;4869675;29;20050;-87
2023/09/25 12:18:00;;;;;;;19.30;5.45;;;;;;;19.42;53.27;100998.03;4838018;29;20042;-89
2023/09/25 12:20:28;;;;;;;19.00;5.32;;;;;;;19.45;53.94;100977.16;4814457;29;20085;-89
2023/09/25 12:22:57;;;;;;;12.82;5.43;;;;;;;19.65;53.95;100989.50;4827242;29;20141;-84
2023/09/25 12:25:24;;;;;;;9.13;4.88;;;;;;;19.54;52.96;100979.91;4800402;29;20054;-87
2023/09/25 12:27:50;;;;;;;16.27;5.00;;;;;;;19.80;53.69;100983.41;4832768;29;20516;-87
2023/09/25 12:30:19;;;;;;;14.73;5.20;;;;;;;20.05;54.70;100997.47;4832961;29;20055;-87
2023/09/25 12:32:49;;;;;;;18.92;5.05;;;;;;;19.97;52.41;100981.66;4828143;29;20299;-87
2023/09/25 12:35:18;;;;;;;8.95;4.82;;;;;;;19.73;50.54;100982.28;4842027;29;20132;-86
2023/09/25 12:37:46;;;;;;;12.10;4.45;;;;;;;19.86;51.41;100998.69;4846843;29;20042;-87
2023/09/25 12:40:15;;;;;;;13.05;4.63;;;;;;;19.71;50.90;100988.97;4846549;29;20130;-88
2023/09/25 12:42:46;;;;;;;14.98;4.05;;;;;;;19.70;50.40;101000.41;4849956;29;20046;-84
2023/09/25 12:45:16;;;;;;;15.07;3.80;;;;;;;19.51;49.67;100941.75;4848565;29;20050;-89
2023/09/25 12:47:45;;;;;;;16.60;3.55;;;;;;;19.81;49.26;101006.41;4846008;29;20049;-89
2023/09/25 12:50:13;;;;;;;13.82;3.53;;;;;;;19.63;48.78;100987.06;4820154;29;20081;-86
2023/09/25 12:52:39;;;;;;;11.00;3.85;;;;;;;19.47;48.95;100986.78;4850866;29;20417;-87
2023/09/25 12:55:06;;;;;;;8.45;3.50;;;;;;;19.54;49.25;101002.91;4852748;29;20054;-87
2023/09/25 12:57:35;;;;;;;14.57;3.80;;;;;;;19.53;48.71;101006.00;4852740;29;20106;-86
2023/09/25 13:00:05;;;;;;;18.20;4.38;;;;;;;19.48;49.78;100988.41;4849601;29;20052;-85
2023/09/25 13:02:34;;;;;;;10.27;3.53;;;;;;;19.43;48.12;101013.53;4845597;29;20092;-89
2023/09/25 13:05:04;;;;;;;6.18;3.13;;;;;;;19.24;48.46;101005.63;4816569;29;20062;-84
2023/09/25 13:07:32;;;;;;;9.60;3.70;;;;;;;19.08;48.79;100987.88;4848713;29;20053;-86
2023/09/25 13:09:58;;;;;;;11.48;3.25;;;;;;;19.31;48.38;101013.41;4846661;29;20077;-86
2023/09/25 13:12:24;;;;;;;12.57;3.43;;;;;;;19.39;48.42;101028.41;4846989;29;20046;-85
2023/09/25 13:14:51;;;;;;;11.50;3.33;;;;;;;19.31;47.72;101018.97;4832244;29;20105;-86
2023/09/25 13:17:18;;;;;;;10.48;3.17;;;;;;;19.07;47.79;101008.41;4865146;29;20525;-85
2023/09/25 13:19:45;;;;;;;8.13;3.33;;;;;;;19.08;48.74;101007.28;4854857;29;20097;-86
2023/09/25 13:22:11;;;;;;;10.93;3.53;;;;;;;19.13;48.78;101006.28;4849991;29;20106;-85
2023/09/25 13:24:40;;;;;;;23.83;4.30;;;;;;;19.02;49.11;100981.69;4845751;29;20427;-87
2023/09/25 13:27:07;;;;;;;6.93;3.15;;;;;;;19.10;48.25;101013.28;4849284;29;20093;-87
2023/09/25 13:29:34;;;;;;;13.27;3.70;;;;;;;19.24;49.17;101021.44;4851148;29;20049;-88
2023/09/25 13:32:00;;;;;;;8.70;2.90;;;;;;;19.13;48.11;101017.38;4862591;29;20074;-90
2023/09/25 13:34:26;;;;;;;4.77;2.67;;;;;;;19.01;48.82;101006.97;4854319;29;20058;-88
2023/09/25 13:36:54;;;;;;;5.15;3.15;;;;;;;19.00;48.97;101011.66;4849356;29;20053;-85
2023/09/25 13:39:20;;;;;;;27.57;3.77;;;;;;;19.00;49.22;101025.53;4867728;29;20092;-87
2023/09/25 13:41:46;;;;;;;3.60;2.67;;;;;;;19.02;49.50;101023.25;4867135;29;20038;-86
2023/09/25 13:44:14;;;;;;;8.60;3.72;;;;;;;19.13;50.10;101026.50;4864141;29;20049;-87
2023/09/25 13:46:41;;;;;;;19.38;3.42;;;;;;;19.05;49.30;101009.91;4864634;29;20041;-86
2023/09/25 13:49:07;;;;;;;23.00;3.80;;;;;;;19.03;48.93;101010.22;4820298;29;20041;-86
2023/09/25 13:51:35;;;;;;;13.95;3.70;;;;;;;19.14;49.43;101033.69;4865061;29;20049;-83
2023/09/25 13:54:01;;;;;;;11.50;3.17;;;;;;;19.12;48.88;101030.41;4821892;29;20072;-85
2023/09/25 13:56:27;;;;;;;11.15;3.58;;;;;;;19.16;49.05;101027.81;4848261;29;20057;-83
2023/09/25 13:58:53;;;;;;;12.38;3.95;;;;;;;18.97;49.45;101005.97;4846482;29;20045;-84
2023/09/25 14:01:20;;;;;;;9.47;3.23;;;;;;;19.03;49.36;101032.38;4864590;29;20060;-84
2023/09/25 14:03:46;;;;;;;;;;;;;;;19.09;50.06;101041.34;4868175;29;20064;-86
2023/09/25 14:06:12;;;;;;;14.50;3.60;;;;;;;19.05;50.40;101032.06;4868272;29;19919;-84
2023/09/25 14:08:38;;;;;;;7.80;3.28;;;;;;;18.85;49.58;101017.75;4867528;29;20054;-86
2023/09/25 14:11:05;;;;;;;17.45;3.60;;;;;;;18.69;50.22;101014.63;4865601;29;20041;-84
2023/09/25 14:13:31;;;;;;;9.40;3.45;;;;;;;18.72;51.24;101018.72;4847327;29;20060;-86
2023/09/25 14:15:57;;;;;;;19.83;4.10;;;;;;;18.76;50.67;101030.78;4866450;29;20042;-84
2023/09/25 14:18:25;;;;;;;14.70;4.13;;;;;;;18.61;50.88;100997.97;4866372;29;20053;-87
2023/09/25 14:20:53;;;;;;;12.35;4.07;;;;;;;18.71;51.95;101019.84;4863606;29;20168;-85
2023/09/25 14:23:19;;;;;;;11.80;3.60;;;;;;;18.80;53.16;101034.53;4846521;29;20044;-86
2023/09/25 14:25:46;;;;;;;10.77;3.90;;;;;;;18.67;54.40;101007.75;4862341;29;20385;-85
2023/09/25 14:28:13;;;;;;;18.92;4.13;;;;;;;18.79;54.81;101038.44;4847976;29;20103;-85
2023/09/25 14:30:40;;;;;;;27.25;3.53;;;;;;;18.71;55.27;101036.47;4849072;29;20140;-87
2023/09/25 14:33:07;;;;;;;15.20;4.78;;;;;;;18.34;53.88;101005.47;4870740;29;20454;-88
2023/09/25 14:35:34;;;;;;;14.88;3.80;;;;;;;18.51;54.91;101035.16;4878794;29;20041;-87
2023/09/25 14:38:00;;;;;;;11.43;3.72;;;;;;;18.36;55.37;101021.75;4844964;29;20081;-83
2023/09/25 14:40:29;;;;;;;14.23;4.10;;;;;;;18.21;56.56;101011.97;4821466;29;20049;-84
2023/09/25 14:42:56;;;;;;;8.20;3.60;;;;;;;18.28;56.46;101045.53;4858618;29;20044;-82
2023/09/25 14:45:23;;;;;;;16.80;4.00;;;;;;;18.21;56.20;101036.88;4874134;29;20048;-88
2023/09/25 14:47:51;;;;;;;12.60;3.80;;;;;;;18.14;55.36;101047.59;4859091;29;20569;-86
2023/09/25 14:50:18;;;;;;;16.02;4.13;;;;;;;18.14;55.21;101045.66;4857855;29;20042;-84
2023/09/25 14:52:44;;;;;;;17.80;4.25;;;;;;;18.05;59.30;101020.72;4881605;29;20139;-85
2023/09/25 14:55:12;;;;;;;9.88;4.40;;;;;;;17.95;56.07;101011.91;4865642;29;20049;-88
2023/09/25 14:57:40;;;;;;;13.00;4.45;;;;;;;17.99;56.06;101026.75;4884950;29;20116;-83
2023/09/25 15:00:09;;;;;;;20.92;4.40;;;;;;;18.05;57.22;101045.63;4869862;29;20061;-84
2023/09/25 15:02:37;;;;;;;13.45;4.25;;;;;;;17.80;57.84;101010.38;4882759;29;20093;-88
2023/09/25 15:05:04;;;;;;;17.73;4.43;;;;;;;17.86;55.31;101019.38;4882804;29;20101;-85